createdAt,value
2018-11-27T00:00:25.908Z,92.13
2018-11-27T00:02:59.943Z,88.53
2018-11-27T00:05:28.388Z,92.67
2018-11-27T00:07:56.259Z,89.10
2018-11-27T00:10:24.174Z,87.27
2018-11-27T00:12:52.433Z,85.20
2018-11-27T00:15:20.382Z,83.67
2018-11-27T00:17:48.355Z,84.00
2018-11-27T00:20:16.193Z,88.93
2018-11-27T00:22:44.103Z,82.07
2018-11-27T00:25:13.109Z,93.93
2018-11-27T00:27:41.237Z,82.40
2018-11-27T00:30:12.943Z,85.17
2018-11-27T00:32:40.867Z,87.77
2018-11-27T00:35:10.764Z,81.43
2018-11-27T00:37:38.686Z,83.30
2018-11-27T00:40:17.621Z,84.50
2018-11-27T00:42:45.494Z,81.30
2018-11-27T00:45:15.680Z,84.17
2018-11-27T00:47:44.597Z,81.00
2018-11-27T00:50:18.430Z,86.03
2018-11-27T00:52:46.845Z,77.30
2018-11-27T00:55:15.595Z,79.30
2018-11-27T00:57:44.233Z,81.40
2018-11-27T01:00:14.254Z,76.97
2018-11-27T01:02:42.141Z,72.73
2018-11-27T01:05:11.489Z,81.50
2018-11-27T01:07:39.354Z,79.63
2018-11-27T01:10:19.596Z,82.03
2018-11-27T01:12:47.473Z,81.90
2018-11-27T01:15:16.119Z,84.17
2018-11-27T01:17:48.865Z,83.07
2018-11-27T01:20:19.047Z,81.03
2018-11-27T01:22:46.913Z,79.50
2018-11-27T01:25:14.761Z,81.73
2018-11-27T01:27:42.637Z,82.10
2018-11-27T01:30:12.639Z,78.50
2018-11-27T01:32:42.617Z,84.37
2018-11-27T01:35:12.662Z,74.90
2018-11-27T01:37:40.883Z,76.40
2018-11-27T01:40:13.067Z,81.57
2018-11-27T01:42:40.949Z,84.20
2018-11-27T01:45:10.913Z,79.20
2018-11-27T01:47:38.752Z,77.63
2018-11-27T01:50:09.834Z,76.67
2018-11-27T01:52:38.989Z,82.27
2018-11-27T01:55:08.651Z,78.83
2018-11-27T01:57:36.545Z,84.17
2018-11-27T02:00:10.110Z,79.53
2018-11-27T02:02:37.955Z,77.43
2018-11-27T02:05:07.031Z,72.00
2018-11-27T02:07:35.969Z,81.43
2018-11-27T02:10:06.289Z,76.80
2018-11-27T02:12:34.110Z,71.47
2018-11-27T02:15:02.023Z,77.00
2018-11-27T02:17:29.864Z,77.80
2018-11-27T02:19:57.778Z,76.93
2018-11-27T02:22:25.604Z,76.83
2018-11-27T02:24:57.935Z,74.10
2018-11-27T02:27:25.783Z,74.17
2018-11-27T02:29:53.591Z,79.73
2018-11-27T02:32:21.404Z,77.83
2018-11-27T02:34:49.256Z,74.70
2018-11-27T02:37:17.108Z,83.73
2018-11-27T02:39:44.924Z,76.73
2018-11-27T02:42:12.795Z,80.30
2018-11-27T02:44:40.636Z,83.13
2018-11-27T02:47:08.453Z,76.93
2018-11-27T02:49:36.339Z,77.10
2018-11-27T02:52:04.497Z,83.50
2018-11-27T02:54:32.289Z,72.57
2018-11-27T02:57:00.193Z,78.30
2018-11-27T02:59:28.015Z,77.87
2018-11-27T03:01:55.841Z,75.30
2018-11-27T03:04:26.559Z,73.47
2018-11-27T03:06:54.379Z,70.73
2018-11-27T03:09:22.222Z,76.20
2018-11-27T03:11:51.731Z,74.97
2018-11-27T03:14:19.597Z,72.73
2018-11-27T03:16:47.454Z,72.30
2018-11-27T03:19:15.303Z,76.23
2018-11-27T03:21:43.149Z,76.93
2018-11-27T03:24:10.970Z,71.17
2018-11-27T03:26:38.831Z,71.70
2018-11-27T03:29:06.679Z,72.47
2018-11-27T03:31:34.490Z,70.83
2018-11-27T03:34:02.973Z,78.97
2018-11-27T03:36:30.802Z,74.70
2018-11-27T03:38:58.618Z,75.40
2018-11-27T03:41:26.513Z,72.60
2018-11-27T03:43:54.354Z,72.57
2018-11-27T03:46:22.172Z,73.77
2018-11-27T03:48:50.015Z,74.40
2018-11-27T03:51:17.854Z,71.53
2018-11-27T03:53:45.743Z,70.03
2018-11-27T03:56:13.627Z,72.37
2018-11-27T03:58:41.489Z,70.60
2018-11-27T04:01:09.306Z,76.97
2018-11-27T04:03:37.263Z,72.53
2018-11-27T04:06:05.130Z,77.40
2018-11-27T04:08:32.978Z,72.53
2018-11-27T04:11:01.684Z,77.07
2018-11-27T04:13:29.472Z,75.47
2018-11-27T04:15:57.363Z,74.23
2018-11-27T04:18:25.206Z,75.50
2018-11-27T04:20:53.207Z,76.10
2018-11-27T04:23:21.032Z,75.37
2018-11-27T04:25:48.922Z,81.43
2018-11-27T04:28:16.817Z,75.13
2018-11-27T04:30:44.635Z,75.53
2018-11-27T04:33:12.464Z,74.87
2018-11-27T04:35:40.287Z,75.40
2018-11-27T04:38:08.132Z,79.33
2018-11-27T04:40:36.710Z,71.57
2018-11-27T04:43:04.976Z,77.17
2018-11-27T04:45:33.989Z,74.17
2018-11-27T04:48:01.855Z,75.03
2018-11-27T04:50:30.789Z,76.73
2018-11-27T04:52:58.642Z,77.43
2018-11-27T04:55:26.542Z,78.93
2018-11-27T04:57:54.355Z,81.33
2018-11-27T05:00:24.345Z,74.73
2018-11-27T05:02:52.353Z,79.00
2018-11-27T05:05:20.290Z,79.10
2018-11-27T05:07:48.847Z,74.37
2018-11-27T05:10:19.329Z,81.57
2018-11-27T05:12:47.443Z,78.53
2018-11-27T05:15:17.485Z,84.50
2018-11-27T05:17:48.268Z,87.53
2018-11-27T05:20:15.485Z,84.63
2018-11-27T05:22:43.609Z,86.63
2018-11-27T05:25:12.690Z,84.30
2018-11-27T05:27:41.559Z,82.13
2018-11-27T05:30:11.453Z,79.27
2018-11-27T05:32:39.299Z,95.33
2018-11-27T05:35:08.844Z,90.73
2018-11-27T05:37:36.929Z,93.83
2018-11-27T05:40:07.835Z,87.97
2018-11-27T05:42:35.944Z,93.70
2018-11-27T05:45:04.310Z,87.20
2018-11-27T05:47:32.148Z,91.13
2018-11-27T05:50:00.129Z,93.20
2018-11-27T05:52:28.051Z,92.07
2018-11-27T05:54:55.957Z,94.27
2018-11-27T05:57:25.355Z,98.90
2018-11-27T05:59:53.195Z,95.57
2018-11-27T06:02:21.090Z,90.27
2018-11-27T06:04:48.995Z,86.67
2018-11-27T06:07:16.858Z,86.27
2018-11-27T06:09:45.263Z,99.90
2018-11-27T06:12:13.264Z,92.47
2018-11-27T06:14:41.140Z,92.77
2018-11-27T06:17:09.552Z,94.30
2018-11-27T06:19:37.762Z,95.77
2018-11-27T06:22:06.058Z,87.97
2018-11-27T06:24:33.913Z,98.77
2018-11-27T06:27:01.830Z,99.27
2018-11-27T06:29:30.728Z,93.30
2018-11-27T06:31:58.611Z,96.97
2018-11-27T06:34:26.450Z,93.07
2018-11-27T06:36:54.963Z,104.57
2018-11-27T06:39:22.800Z,105.77
2018-11-27T06:41:50.765Z,107.47
2018-11-27T06:44:23.514Z,101.07
2018-11-27T06:46:51.374Z,97.30
2018-11-27T06:49:20.301Z,96.47
2018-11-27T06:51:48.079Z,92.63
2018-11-27T06:54:16.960Z,102.37
2018-11-27T06:56:44.788Z,105.67
2018-11-27T06:59:12.931Z,92.83
2018-11-27T07:01:41.360Z,90.00
2018-11-27T07:04:09.168Z,89.97
2018-11-27T07:06:37.530Z,91.97
2018-11-27T07:09:08.503Z,100.40
2018-11-27T07:11:36.895Z,96.53
2018-11-27T07:14:05.186Z,98.00
2018-11-27T07:16:33.144Z,101.13
2018-11-27T07:19:01.130Z,97.03
2018-11-27T07:21:28.991Z,100.83
2018-11-27T07:23:56.806Z,101.17
2018-11-27T07:26:24.612Z,100.60
2018-11-27T07:28:52.438Z,103.47
2018-11-27T07:31:21.220Z,100.73
2018-11-27T07:33:49.196Z,106.43
2018-11-27T07:36:17.245Z,104.17
2018-11-27T07:38:45.169Z,94.30
2018-11-27T07:41:13.678Z,99.67
2018-11-27T07:43:41.541Z,98.67
2018-11-27T07:46:09.381Z,100.40
2018-11-27T07:48:38.557Z,96.57
2018-11-27T07:51:06.349Z,94.60
2018-11-27T07:53:34.354Z,106.43
2018-11-27T07:56:02.163Z,107.20
2018-11-27T07:58:30.128Z,98.23
2018-11-27T08:00:57.927Z,97.13
2018-11-27T08:03:25.742Z,105.93
2018-11-27T08:05:53.551Z,103.67
2018-11-27T08:08:21.529Z,102.93
2018-11-27T08:10:49.454Z,102.73
2018-11-27T08:13:17.295Z,106.60
2018-11-27T08:15:45.180Z,104.80
2018-11-27T08:18:13.065Z,106.33
2018-11-27T08:20:40.915Z,110.77
2018-11-27T08:23:09.797Z,107.70
2018-11-27T08:25:37.615Z,109.80
2018-11-27T08:28:07.565Z,109.63
2018-11-27T08:30:35.431Z,96.10
2018-11-27T08:33:03.318Z,104.20
2018-11-27T08:35:34.406Z,101.17
2018-11-27T08:38:02.257Z,110.63
2018-11-27T08:40:31.565Z,107.40
2018-11-27T08:43:01.155Z,107.97
2018-11-27T08:45:29.038Z,106.63
2018-11-27T08:47:57.913Z,114.93
2018-11-27T08:50:27.623Z,113.37
2018-11-27T08:52:57.650Z,105.13
2018-11-27T08:55:27.868Z,102.80
2018-11-27T08:57:55.927Z,106.17
2018-11-27T09:00:25.814Z,106.10
2018-11-27T09:02:53.745Z,103.60
2018-11-27T09:05:21.804Z,111.90
2018-11-27T09:07:49.629Z,101.83
2018-11-27T09:10:22.793Z,100.60
2018-11-27T09:12:50.633Z,98.10
2018-11-27T09:15:19.642Z,92.67
2018-11-27T09:18:01.904Z,92.10
2018-11-27T09:20:29.734Z,99.27
2018-11-27T09:22:58.150Z,95.13
2018-11-27T09:25:25.975Z,97.37
2018-11-27T09:27:53.839Z,89.33
2018-11-27T09:30:23.500Z,94.67
2018-11-27T09:32:51.445Z,88.47
2018-11-27T09:35:19.338Z,86.93
2018-11-27T09:37:47.886Z,82.80
2018-11-27T09:40:17.057Z,86.50
2018-11-27T09:42:44.967Z,88.87
2018-11-27T09:45:17.674Z,85.97
2018-11-27T09:47:46.550Z,82.73
2018-11-27T09:50:15.165Z,87.30
2018-11-27T09:52:43.900Z,83.87
2018-11-27T09:55:17.652Z,90.97
2018-11-27T09:57:45.526Z,91.87
2018-11-27T10:00:16.626Z,86.93
2018-11-27T10:02:44.466Z,98.43
2018-11-27T10:05:12.785Z,97.03
2018-11-27T10:07:41.525Z,90.90
2018-11-27T10:10:11.881Z,88.17
2018-11-27T10:12:40.209Z,90.47
2018-11-27T10:15:13.948Z,90.93
2018-11-27T10:17:42.060Z,92.27
2018-11-27T10:20:13.407Z,87.57
2018-11-27T10:22:41.418Z,82.67
2018-11-27T10:25:10.440Z,84.17
2018-11-27T10:27:40.463Z,83.20
2018-11-27T10:30:17.109Z,80.97
2018-11-27T10:32:45.815Z,82.47
2018-11-27T10:35:32.179Z,90.90
2018-11-27T10:38:00.055Z,82.30
2018-11-27T10:40:29.585Z,82.17
2018-11-27T10:42:57.626Z,82.17
2018-11-27T10:45:25.511Z,79.23
2018-11-27T10:47:55.079Z,74.13
2018-11-27T10:50:30.403Z,73.87
2018-11-27T10:52:58.255Z,79.10
2018-11-27T10:55:26.636Z,72.47
2018-11-27T10:57:55.564Z,77.70
2018-11-27T11:00:30.631Z,72.97
2018-11-27T11:04:03.842Z,74.77
2018-11-27T11:06:32.674Z,78.27
2018-11-27T11:09:01.609Z,74.47
2018-11-27T11:11:29.594Z,73.27
2018-11-27T11:13:57.612Z,76.90
2018-11-27T11:16:25.697Z,73.60
2018-11-27T11:18:53.544Z,73.60
2018-11-27T11:21:21.388Z,75.07
2018-11-27T11:23:49.512Z,70.70
2018-11-27T11:26:17.378Z,74.60
2018-11-27T11:28:45.224Z,70.73
2018-11-27T11:31:13.052Z,74.80
2018-11-27T11:33:41.729Z,75.63
2018-11-27T11:36:09.553Z,69.93
2018-11-27T11:38:37.944Z,77.33
2018-11-27T11:41:06.373Z,76.60
2018-11-27T11:43:34.638Z,67.87
2018-11-27T11:46:02.458Z,72.53
2018-11-27T11:48:30.358Z,75.63
2018-11-27T11:50:58.502Z,69.67
2018-11-27T11:53:26.803Z,74.53
2018-11-27T11:55:54.685Z,74.97
2018-11-27T11:58:22.572Z,81.27
2018-11-27T12:00:52.888Z,74.87
2018-11-27T12:03:20.818Z,77.43
2018-11-27T12:05:49.672Z,74.63
2018-11-27T12:08:18.321Z,75.90
2018-11-27T12:10:46.155Z,78.73
2018-11-27T12:13:14.053Z,78.57
2018-11-27T12:15:41.915Z,74.67
2018-11-27T12:18:10.283Z,78.93
2018-11-27T12:20:38.983Z,76.87
2018-11-27T12:23:08.342Z,79.73
2018-11-27T12:25:43.958Z,84.63
2018-11-27T12:28:14.629Z,83.43
2018-11-27T12:30:41.000Z,78.07
2018-11-27T12:33:08.957Z,78.87
2018-11-27T12:35:36.835Z,77.50
2018-11-27T12:38:05.450Z,83.67
2018-11-27T12:40:33.564Z,78.00
2018-11-27T12:43:01.413Z,78.83
2018-11-27T12:45:30.755Z,80.30
2018-11-27T12:47:59.689Z,72.50
2018-11-27T12:50:45.891Z,76.77
2018-11-27T12:53:17.033Z,77.33
2018-11-27T12:55:44.702Z,77.50
2018-11-27T12:58:12.568Z,76.20
2018-11-27T13:00:40.519Z,72.73
2018-11-27T13:03:09.088Z,75.57
2018-11-27T13:05:40.552Z,76.70
2018-11-27T13:08:10.877Z,77.37
2018-11-27T13:10:38.796Z,71.13
2018-11-27T13:13:06.745Z,76.67
2018-11-27T13:15:35.894Z,73.17
2018-11-27T13:18:04.804Z,72.87
2018-11-27T13:20:32.691Z,74.83
2018-11-27T13:23:00.558Z,71.10
2018-11-27T13:25:28.425Z,67.47
2018-11-27T13:27:56.558Z,67.50
2018-11-27T13:30:26.862Z,67.03
2018-11-27T13:35:07.344Z,58.30
2018-11-27T13:37:35.193Z,64.67
2018-11-27T13:40:03.105Z,61.50
2018-11-27T13:42:31.572Z,68.80
2018-11-27T13:44:59.404Z,68.60
2018-11-27T13:47:27.222Z,68.07
2018-11-27T13:49:55.933Z,69.27
2018-11-27T13:52:24.015Z,66.10
2018-11-27T13:54:52.033Z,64.57
2018-11-27T13:57:20.552Z,63.67
2018-11-27T13:59:48.400Z,64.87
2018-11-27T14:02:16.245Z,64.40
2018-11-27T14:04:44.115Z,65.90
2018-11-27T14:07:12.101Z,65.53
2018-11-27T14:09:39.961Z,65.07
2018-11-27T14:12:07.915Z,64.03
2018-11-27T14:14:35.783Z,65.90
2018-11-27T14:17:03.721Z,60.47
2018-11-27T14:19:31.556Z,62.50
2018-11-27T14:21:59.449Z,62.10
2018-11-27T14:24:27.296Z,60.67
2018-11-27T14:26:55.164Z,63.57
2018-11-27T14:29:23.150Z,59.53
2018-11-27T14:31:51.414Z,64.37
2018-11-27T14:34:19.524Z,62.03
2018-11-27T14:36:47.411Z,70.37
2018-11-27T14:39:15.565Z,65.43
2018-11-27T14:41:43.511Z,62.83
2018-11-27T14:44:11.367Z,67.73
2018-11-27T14:46:39.180Z,58.97
2018-11-27T14:49:07.097Z,66.67
2018-11-27T14:51:35.014Z,66.43
2018-11-27T14:54:02.893Z,65.10
2018-11-27T14:56:30.734Z,67.97
2018-11-27T14:59:00.162Z,63.40
2018-11-27T15:01:28.074Z,62.50
2018-11-27T15:03:55.901Z,66.20
2018-11-27T15:06:23.979Z,66.60
2018-11-27T15:08:51.920Z,60.83
2018-11-27T15:11:20.469Z,62.00
2018-11-27T15:13:48.833Z,66.10
2018-11-27T15:16:17.711Z,67.03
2018-11-27T15:18:45.641Z,67.73
2018-11-27T15:21:13.916Z,66.73
2018-11-27T15:23:41.941Z,69.03
2018-11-27T15:26:10.404Z,69.27
2018-11-27T15:28:38.443Z,71.40
2018-11-27T15:31:06.355Z,71.47
2018-11-27T15:33:34.411Z,70.80
2018-11-27T15:36:02.485Z,68.13
2018-11-27T15:38:30.480Z,71.73
2018-11-27T15:40:58.382Z,67.50
2018-11-27T15:43:26.280Z,69.93
2018-11-27T15:45:54.222Z,70.27
2018-11-27T15:48:22.323Z,76.83
2018-11-27T15:50:50.198Z,69.73
2018-11-27T15:53:18.445Z,78.70
2018-11-27T15:55:47.276Z,77.60
2018-11-27T15:58:15.231Z,76.03
2018-11-27T16:00:44.140Z,75.83
2018-11-27T16:03:12.051Z,74.67
2018-11-27T16:05:46.876Z,76.60
2018-11-27T16:08:15.177Z,73.10
2018-11-27T16:10:43.248Z,80.43
2018-11-27T16:13:11.956Z,79.23
2018-11-27T16:15:39.881Z,84.33
2018-11-27T16:18:08.268Z,83.17
2018-11-27T16:20:36.209Z,80.23
2018-11-27T16:23:04.158Z,82.80
2018-11-27T16:25:32.409Z,77.57
2018-11-27T16:28:03.378Z,88.27
2018-11-27T16:30:32.936Z,81.80
2018-11-27T16:33:00.931Z,86.50
2018-11-27T16:35:29.798Z,85.00
2018-11-27T16:37:59.606Z,86.40
2018-11-27T16:40:29.660Z,87.53
2018-11-27T16:42:58.069Z,84.73
2018-11-27T16:45:26.129Z,88.03
2018-11-27T16:47:54.065Z,86.13
2018-11-27T16:50:21.981Z,90.27
2018-11-27T16:52:50.048Z,85.30
2018-11-27T16:55:20.085Z,87.40
2018-11-27T16:57:48.826Z,88.87
2018-11-27T17:00:25.362Z,82.20
2018-11-27T17:02:55.371Z,89.83
2018-11-27T17:05:29.918Z,87.87
2018-11-27T17:07:57.840Z,81.50
2018-11-27T17:10:25.778Z,88.03
2018-11-27T17:12:56.111Z,92.80
2018-11-27T17:15:25.176Z,96.03
2018-11-27T17:17:53.822Z,94.90
2018-11-27T17:20:28.010Z,99.93
2018-11-27T17:22:57.052Z,86.97
2018-11-27T17:25:25.021Z,95.40
2018-11-27T17:27:53.549Z,86.07
2018-11-27T17:30:39.349Z,96.87
2018-11-27T17:33:10.647Z,93.00
2018-11-27T17:35:41.868Z,95.50
2018-11-27T17:38:10.490Z,89.27
2018-11-27T17:40:38.581Z,88.27
2018-11-27T17:43:06.570Z,101.23
2018-11-27T17:45:34.537Z,94.27
2018-11-27T17:48:02.587Z,92.27
2018-11-27T17:50:30.533Z,92.13
2018-11-27T17:52:58.605Z,93.03
2018-11-27T17:55:27.790Z,97.57
2018-11-27T17:57:55.718Z,105.27
2018-11-27T18:00:28.712Z,103.17
2018-11-27T18:02:59.219Z,96.27
2018-11-27T18:05:27.409Z,107.47
2018-11-27T18:07:55.390Z,95.17
2018-11-27T18:10:23.378Z,98.13
2018-11-27T18:12:51.393Z,92.43
2018-11-27T18:15:20.627Z,90.73
2018-11-27T18:17:48.841Z,91.83
2018-11-27T18:20:17.656Z,86.40
2018-11-27T18:22:45.914Z,92.83
2018-11-27T18:25:14.841Z,96.20
2018-11-27T18:27:45.136Z,92.47
2018-11-27T18:30:14.308Z,92.50
2018-11-27T18:32:42.317Z,104.10
2018-11-27T18:35:14.539Z,92.97
2018-11-27T18:37:42.556Z,86.63
2018-11-27T18:40:11.584Z,89.43
2018-11-27T18:42:39.586Z,96.10
2018-11-27T18:45:13.317Z,92.27
2018-11-27T18:47:41.885Z,91.20
2018-11-27T18:50:11.307Z,86.33
2018-11-27T18:52:39.367Z,81.10
2018-11-27T18:55:08.775Z,77.77
2018-11-27T18:57:36.772Z,82.53
2018-11-27T19:00:09.791Z,77.17
2018-11-27T19:02:38.743Z,72.97
2018-11-27T19:05:07.123Z,76.43
2018-11-27T19:07:37.729Z,71.57
2018-11-27T19:10:09.014Z,75.40
2018-11-27T19:12:37.016Z,68.40
2018-11-27T19:15:24.667Z,68.37
2018-11-27T19:17:54.932Z,65.40
2018-11-27T19:20:22.989Z,63.00
2018-11-27T19:22:50.944Z,60.93
2018-11-27T19:25:18.891Z,59.47
2018-11-27T19:27:46.880Z,62.83
2018-11-27T19:30:16.878Z,58.47
2018-11-27T19:32:44.848Z,59.60
2018-11-27T19:35:14.975Z,56.57
2018-11-27T19:37:45.863Z,54.30
2018-11-27T19:40:15.018Z,47.03
2018-11-27T19:42:45.623Z,50.57
2018-11-27T19:47:43.443Z,50.10
2018-11-27T19:50:12.178Z,51.00
2018-11-27T19:52:40.904Z,47.03
2018-11-27T19:55:10.540Z,45.10
2018-11-27T19:57:38.561Z,47.57
2018-11-27T20:00:15.208Z,46.57
2018-11-27T20:02:43.245Z,47.00
2018-11-27T20:05:12.499Z,48.37
2018-11-27T20:07:41.557Z,49.13
2018-11-27T20:10:14.172Z,52.37
2018-11-27T20:12:46.227Z,51.67
2018-11-27T20:15:17.795Z,52.27
2018-11-27T20:17:46.481Z,48.83
2018-11-27T20:20:15.591Z,46.53
2018-11-27T20:22:43.681Z,41.30
2018-11-27T20:25:14.929Z,40.77
2018-11-27T20:27:50.676Z,44.67
2018-11-27T20:30:21.795Z,41.17
2018-11-27T20:32:54.797Z,39.50
2018-11-27T20:35:22.848Z,41.10
2018-11-27T20:37:51.721Z,40.83
2018-11-27T20:40:19.912Z,40.63
2018-11-27T20:42:48.054Z,41.47
2018-11-27T20:45:20.729Z,44.27
2018-11-27T20:47:51.953Z,39.33
2018-11-27T20:50:21.659Z,41.57
2018-11-27T20:52:49.697Z,47.07
2018-11-27T20:55:21.386Z,42.53
2018-11-27T20:57:52.023Z,43.17
2018-11-27T21:00:23.354Z,44.40
2018-11-27T21:02:52.980Z,43.37
2018-11-27T21:05:21.092Z,43.77
2018-11-27T21:07:49.030Z,42.13
2018-11-27T21:10:17.710Z,40.83
2018-11-27T21:12:45.935Z,41.50
2018-11-27T21:15:15.088Z,39.57
2018-11-27T21:17:43.133Z,45.50
2018-11-27T21:20:12.132Z,40.67
2018-11-27T21:22:53.318Z,41.90
2018-11-27T21:25:23.304Z,41.10
2018-11-27T21:28:10.764Z,43.63
2018-11-27T21:33:22.233Z,40.17
2018-11-27T21:35:50.400Z,40.43
2018-11-27T21:38:18.319Z,39.73
2018-11-27T21:40:46.268Z,36.03
2018-11-27T21:43:14.258Z,36.40
2018-11-27T21:45:42.216Z,41.93
2018-11-27T21:48:10.183Z,39.20
2018-11-27T21:50:39.634Z,38.33
2018-11-27T21:53:07.579Z,40.13
2018-11-27T21:55:36.166Z,35.13
2018-11-27T21:58:04.337Z,38.73
2018-11-27T22:00:32.259Z,37.70
2018-11-27T22:03:00.912Z,35.00
2018-11-27T22:05:28.865Z,33.93
2018-11-27T22:07:56.739Z,33.03
2018-11-27T22:10:26.717Z,32.43
2018-11-27T22:12:55.787Z,34.93
2018-11-27T22:15:28.971Z,32.03
2018-11-27T22:17:56.888Z,34.97
2018-11-27T22:20:24.719Z,34.43
2018-11-27T22:22:52.726Z,31.43
2018-11-27T22:25:21.307Z,29.53
2018-11-27T22:27:49.395Z,31.50
2018-11-27T22:30:18.319Z,29.63
2018-11-27T22:32:48.179Z,29.90
2018-11-27T22:35:17.179Z,29.57
2018-11-27T22:37:45.048Z,31.80
2018-11-27T22:40:16.688Z,30.63
2018-11-27T22:42:45.976Z,34.47
2018-11-27T22:45:16.276Z,31.13
2018-11-27T22:47:44.145Z,27.47
2018-11-27T22:50:13.871Z,28.10
2018-11-27T22:52:41.847Z,25.83
2018-11-27T22:55:10.297Z,28.40
2018-11-27T22:57:38.334Z,29.83
2018-11-27T23:00:33.654Z,30.07
2018-11-27T23:03:01.564Z,27.20
2018-11-27T23:05:29.473Z,27.17
2018-11-27T23:07:57.499Z,26.67
2018-11-27T23:10:26.944Z,28.20
2018-11-27T23:12:54.859Z,29.40
2018-11-27T23:15:24.196Z,29.27
2018-11-27T23:17:52.120Z,32.03
2018-11-27T23:20:20.141Z,28.70
2018-11-27T23:22:48.173Z,25.97
2018-11-27T23:25:17.099Z,29.40
2018-11-27T23:27:45.062Z,28.00
2018-11-27T23:30:16.638Z,28.57
2018-11-27T23:32:44.711Z,31.17
2018-11-27T23:35:13.189Z,26.77
2018-11-27T23:37:41.005Z,27.37
2018-11-27T23:40:11.045Z,28.13
2018-11-27T23:42:39.220Z,29.83
2018-11-27T23:45:09.950Z,27.87
2018-11-27T23:47:38.109Z,27.67
2018-11-27T23:50:07.707Z,31.37
2018-11-27T23:52:35.909Z,26.73
2018-11-27T23:55:03.977Z,28.10
2018-11-27T23:57:32.073Z,28.77
2018-11-27T23:59:59.935Z,28.20
